Time;durP1;ratioP1;P1;durP2;ratioP2;P2;SDS_P1;SDS_P2;PMS_P1;PMS_P2;Temp;Humidity;BMP_temperature;BMP_pressure;BME280_temperature;BME280_humidity;BME280_pressure;Samples;Min_cycle;Max_cycle;Signal;HPM_P1;HPM_P2
2023/03/31 00:00:11;;;;;;;17.13;8.40;;;;;;;;;;5034130;28;20106;-67
2023/03/31 00:02:40;;;;;;;20.10;8.57;;;;;;;;;;5034228;28;20030;-67
2023/03/31 00:05:08;;;;;;;15.95;7.50;;;;;;;;;;5034170;28;20089;-67
2023/03/31 00:07:36;;;;;;;11.30;6.80;;;;;;;;;;5034215;28;20033;-67
2023/03/31 00:10:06;;;;;;;15.00;6.68;;;;;;;;;;5033846;28;20052;-67
2023/03/31 00:12:32;;;;;;;14.48;7.63;;;;;;;;;;5033558;28;20108;-67
2023/03/31 00:14:58;;;;;;;16.63;7.90;;;;;;;;;;5033080;28;20183;-67
2023/03/31 00:17:24;;;;;;;13.85;6.93;;;;;;;;;;5034094;28;20038;-66
2023/03/31 00:19:49;;;;;;;20.50;7.70;;;;;;;;;;5033600;28;20487;-67
2023/03/31 00:22:21;;;;;;;17.60;7.60;;;;;;;;;;5034094;28;20088;-67
2023/03/31 00:24:47;;;;;;;14.65;6.72;;;;;;;;;;5034657;28;20037;-67
2023/03/31 00:27:13;;;;;;;13.23;6.22;;;;;;;;;;5033958;28;20365;-67
2023/03/31 00:29:40;;;;;;;14.68;6.93;;;;;;;;;;5032283;28;20033;-67
2023/03/31 00:32:07;;;;;;;14.77;7.40;;;;;;;;;;5032438;28;20033;-66
2023/03/31 00:34:33;;;;;;;13.70;7.80;;;;;;;;;;5032391;28;20403;-67
2023/03/31 00:37:02;;;;;;;15.48;7.93;;;;;;;;;;5032236;28;20021;-67
2023/03/31 00:39:32;;;;;;;14.98;7.60;;;;;;;;;;5032388;28;20538;-67
2023/03/31 00:41:58;;;;;;;16.88;7.97;;;;;;;;;;5032243;28;20510;-67
2023/03/31 00:44:24;;;;;;;16.77;8.38;;;;;;;;;;5032098;28;20021;-67
2023/03/31 00:47:03;;;;;;;15.95;8.10;;;;;;;;;;5033480;28;20040;-67
2023/03/31 00:49:36;;;;;;;14.18;7.28;;;;;;;;;;5031863;28;20033;-67
2023/03/31 00:52:09;;;;;;;12.40;7.28;;;;;;;;;;5033553;28;20033;-67
2023/03/31 00:54:35;;;;;;;14.15;7.15;;;;;;;;;;5032208;28;20402;-66
2023/03/31 00:57:05;;;;;;;17.60;7.63;;;;;;;;;;5033281;28;20021;-66
2023/03/31 00:59:37;;;;;;;15.65;7.47;;;;;;;;;;5031793;28;20183;-67
2023/03/31 01:02:03;;;;;;;12.60;7.22;;;;;;;;;;5031540;28;20029;-67
2023/03/31 01:04:40;;;;;;;17.33;7.85;;;;;;;;;;5030863;28;20038;-66
2023/03/31 01:07:22;;;;;;;11.93;6.40;;;;;;;;;;5033008;28;20133;-66
2023/03/31 01:09:53;;;;;;;15.63;7.03;;;;;;;;;;5031726;28;20522;-66
2023/03/31 01:12:20;;;;;;;18.90;7.93;;;;;;;;;;5032912;28;20038;-66
2023/03/31 01:14:47;;;;;;;11.60;6.63;;;;;;;;;;5031505;28;20539;-66
2023/03/31 01:17:18;;;;;;;13.05;6.70;;;;;;;;;;5032759;28;20041;-66
2023/03/31 01:20:22;;;;;;;14.35;7.07;;;;;;;;;;5029580;28;20037;-66
2023/03/31 01:22:58;;;;;;;;;;;;;;;;;;5028834;28;20415;-67
2023/03/31 01:25:49;;;;;;;12.00;6.68;;;;;;;;;;5031880;28;20348;-67
2023/03/31 01:28:17;;;;;;;11.18;6.22;;;;;;;;;;5028492;28;20034;-67
2023/03/31 01:31:03;;;;;;;12.60;6.72;;;;;;;;;;5032478;28;20364;-67
2023/03/31 01:34:11;;;;;;;14.27;7.20;;;;;;;;;;5031730;28;20128;-67
2023/03/31 01:36:42;;;;;;;9.50;6.07;;;;;;;;;;5022966;28;20136;-67
2023/03/31 01:39:37;;;;;;;12.93;6.45;;;;;;;;;;5027326;28;20108;-67
2023/03/31 01:42:24;;;;;;;8.48;5.40;;;;;;;;;;5032242;28;20395;-67
2023/03/31 01:45:20;;;;;;;10.85;6.05;;;;;;;;;;5023881;28;20036;-67
2023/03/31 01:48:17;;;;;;;16.08;6.32;;;;;;;;;;5032169;28;20056;-67
2023/03/31 01:51:00;;;;;;;27.77;9.13;;;;;;;;;;5029775;28;20041;-67
2023/03/31 01:53:50;;;;;;;21.65;8.50;;;;;;;;;;5031944;28;20033;-67
2023/03/31 01:56:33;;;;;;;13.77;7.35;;;;;;;;;;5031916;28;20037;-67
2023/03/31 01:59:37;;;;;;;19.97;8.37;;;;;;;;;;5031004;28;20118;-67
2023/03/31 02:02:15;;;;;;;16.67;6.90;;;;;;;;;;5031726;28;20374;-67
2023/03/31 02:04:47;;;;;;;15.75;7.45;;;;;;;;;;5031832;28;20021;-67
2023/03/31 02:07:23;;;;;;;12.43;6.20;;;;;;;;;;5030811;28;20510;-67
2023/03/31 02:09:55;;;;;;;13.82;7.10;;;;;;;;;;5030674;28;20038;-68
2023/03/31 02:12:24;;;;;;;12.60;6.85;;;;;;;;;;5030830;28;20037;-67
2023/03/31 02:14:52;;;;;;;16.55;6.95;;;;;;;;;;5030813;28;20024;-66
2023/03/31 02:17:29;;;;;;;10.77;6.40;;;;;;;;;;5030662;28;20037;-66
2023/03/31 02:20:00;;;;;;;11.05;6.30;;;;;;;;;;5031910;28;20110;-67
2023/03/31 02:22:30;;;;;;;13.18;6.55;;;;;;;;;;5031927;28;20491;-66
2023/03/31 02:24:57;;;;;;;11.73;7.13;;;;;;;;;;5030516;28;20037;-67
2023/03/31 02:27:38;;;;;;;15.00;7.05;;;;;;;;;;5030553;28;20025;-67
2023/03/31 02:30:06;;;;;;;13.05;6.82;;;;;;;;;;5030519;28;20039;-67
2023/03/31 02:32:37;;;;;;;13.18;6.68;;;;;;;;;;5030746;28;20026;-68
2023/03/31 02:35:05;;;;;;;10.95;6.70;;;;;;;;;;5030527;28;20045;-67
2023/03/31 02:37:31;;;;;;;15.00;6.85;;;;;;;;;;5032708;28;20091;-67
2023/03/31 02:40:03;;;;;;;16.83;6.78;;;;;;;;;;5034357;28;20479;-67
2023/03/31 02:42:29;;;;;;;11.40;6.20;;;;;;;;;;5034518;28;20029;-67
2023/03/31 02:45:02;;;;;;;16.75;7.32;;;;;;;;;;5034482;28;20021;-67
2023/03/31 02:47:29;;;;;;;16.20;7.38;;;;;;;;;;5034638;28;20037;-67
2023/03/31 02:49:58;;;;;;;14.40;7.43;;;;;;;;;;5046218;28;20076;-67
2023/03/31 02:52:36;;;;;;;17.90;7.88;;;;;;;;;;5038442;28;20443;-66
2023/03/31 02:55:18;;;;;;;16.98;7.28;;;;;;;;;;5033489;28;20032;-66
2023/03/31 02:58:23;;;;;;;13.80;7.03;;;;;;;;;;5033282;28;20057;-66
2023/03/31 03:01:00;;;;;;;12.02;6.18;;;;;;;;;;5011755;28;20503;-67
2023/03/31 03:03:39;;;;;;;13.27;6.20;;;;;;;;;;5032385;28;20446;-67
2023/03/31 03:06:43;;;;;;;13.60;6.35;;;;;;;;;;5033881;28;20053;-67
2023/03/31 03:09:39;;;;;;;13.90;7.78;;;;;;;;;;5035166;28;20041;-67
2023/03/31 03:12:26;;;;;;;11.60;6.50;;;;;;;;;;5044150;28;20049;-67
2023/03/31 03:14:59;;;;;;;14.93;7.55;;;;;;;;;;5034174;28;20116;-67
2023/03/31 03:17:42;;;;;;;11.50;6.10;;;;;;;;;;5032522;28;20059;-69
2023/03/31 03:20:09;;;;;;;15.23;7.50;;;;;;;;;;5034823;28;20037;-67
2023/03/31 03:22:37;;;;;;;15.63;7.22;;;;;;;;;;5034985;28;20029;-67
2023/03/31 03:25:04;;;;;;;17.17;6.63;;;;;;;;;;5034681;28;20072;-67
2023/03/31 03:27:31;;;;;;;20.45;7.95;;;;;;;;;;5034520;28;20611;-67
2023/03/31 03:29:57;;;;;;;19.60;7.60;;;;;;;;;;5034558;28;20033;-67
2023/03/31 03:32:23;;;;;;;15.20;7.15;;;;;;;;;;5034889;28;20017;-67
2023/03/31 03:34:49;;;;;;;11.82;7.03;;;;;;;;;;5034644;28;20438;-66
2023/03/31 03:37:14;;;;;;;25.75;8.48;;;;;;;;;;5034250;28;20124;-66
2023/03/31 03:39:40;;;;;;;15.48;7.63;;;;;;;;;;5029147;28;20507;-67
2023/03/31 03:42:06;;;;;;;16.27;8.55;;;;;;;;;;5034080;28;20104;-66
2023/03/31 03:44:31;;;;;;;16.08;7.47;;;;;;;;;;5034140;28;20104;-67
2023/03/31 03:46:57;;;;;;;28.88;9.23;;;;;;;;;;5032988;28;20076;-67
2023/03/31 03:49:23;;;;;;;23.42;8.27;;;;;;;;;;5033933;28;20045;-67
2023/03/31 03:51:48;;;;;;;24.70;8.45;;;;;;;;;;5034230;28;20032;-68
2023/03/31 03:54:14;;;;;;;23.50;8.63;;;;;;;;;;5034019;28;20060;-67
2023/03/31 03:56:40;;;;;;;24.75;8.85;;;;;;;;;;5033799;28;20026;-66
2023/03/31 03:59:05;;;;;;;15.70;7.63;;;;;;;;;;5032580;28;20079;-68
2023/03/31 04:01:31;;;;;;;22.33;7.93;;;;;;;;;;5031527;28;20075;-70
2023/03/31 04:03:57;;;;;;;12.27;6.53;;;;;;;;;;5029728;28;20120;-66
2023/03/31 04:06:23;;;;;;;16.50;6.18;;;;;;;;;;5033039;28;20105;-67
2023/03/31 04:08:49;;;;;;;10.32;5.53;;;;;;;;;;5033910;28;20037;-67
2023/03/31 04:11:16;;;;;;;12.43;6.97;;;;;;;;;;5033428;28;20507;-68
2023/03/31 04:13:43;;;;;;;18.52;6.25;;;;;;;;;;5031969;28;20033;-67
2023/03/31 04:16:09;;;;;;;12.15;6.63;;;;;;;;;;5031470;28;20120;-67
2023/03/31 04:18:55;;;;;;;15.18;6.00;;;;;;;;;;5032124;28;20068;-67
2023/03/31 04:21:22;;;;;;;9.98;4.93;;;;;;;;;;5030938;28;20563;-66
2023/03/31 04:23:57;;;;;;;23.48;7.95;;;;;;;;;;5032740;28;20025;-68
2023/03/31 04:26:29;;;;;;;11.52;6.13;;;;;;;;;;5032385;28;20041;-67
2023/03/31 04:28:59;;;;;;;21.20;8.05;;;;;;;;;;5030897;28;20087;-67
2023/03/31 04:31:25;;;;;;;18.80;7.97;;;;;;;;;;5030898;28;20072;-67
2023/03/31 04:33:52;;;;;;;19.50;7.75;;;;;;;;;;5032323;28;20087;-66
2023/03/31 04:36:18;;;;;;;17.08;8.40;;;;;;;;;;5031049;28;20053;-68
2023/03/31 04:38:46;;;;;;;14.30;7.75;;;;;;;;;;5032281;28;20051;-67
2023/03/31 04:41:15;;;;;;;22.17;8.38;;;;;;;;;;5032348;28;20435;-67
2023/03/31 04:43:41;;;;;;;14.32;7.50;;;;;;;;;;5031751;28;20120;-67
2023/03/31 04:46:07;;;;;;;31.35;9.40;;;;;;;;;;5031288;28;20034;-67
2023/03/31 04:48:33;;;;;;;12.60;6.85;;;;;;;;;;5031045;28;20037;-67
2023/03/31 04:50:59;;;;;;;15.02;6.63;;;;;;;;;;5028932;28;20076;-67
2023/03/31 04:53:25;;;;;;;15.95;6.65;;;;;;;;;;5030335;28;20423;-66
2023/03/31 04:55:51;;;;;;;16.13;6.88;;;;;;;;;;5026543;28;20545;-69
2023/03/31 04:58:17;;;;;;;22.13;7.95;;;;;;;;;;5027937;28;20079;-70
2023/03/31 05:00:43;;;;;;;15.93;6.32;;;;;;;;;;5031265;28;20502;-69
2023/03/31 05:03:08;;;;;;;20.20;6.38;;;;;;;;;;5027337;28;20426;-69
2023/03/31 05:05:34;;;;;;;12.20;5.30;;;;;;;;;;5029938;28;20030;-69
2023/03/31 05:08:01;;;;;;;10.65;5.47;;;;;;;;;;5030627;28;20109;-69
2023/03/31 05:10:26;;;;;;;16.52;5.78;;;;;;;;;;5030725;28;20041;-69
2023/03/31 05:12:52;;;;;;;20.38;6.78;;;;;;;;;;5031754;28;20416;-69
2023/03/31 05:15:18;;;;;;;18.52;6.95;;;;;;;;;;5031651;28;20033;-69
2023/03/31 05:17:44;;;;;;;16.88;6.88;;;;;;;;;;5031820;28;20033;-69
2023/03/31 05:20:10;;;;;;;24.63;8.18;;;;;;;;;;5030924;28;20033;-71
2023/03/31 05:22:38;;;;;;;13.98;6.47;;;;;;;;;;5031406;28;20053;-69
2023/03/31 05:25:06;;;;;;;13.55;6.32;;;;;;;;;;5031010;28;20025;-68
2023/03/31 05:27:33;;;;;;;22.20;7.30;;;;;;;;;;5031240;28;20041;-68
2023/03/31 05:29:59;;;;;;;11.95;6.30;;;;;;;;;;5031396;28;20084;-70
2023/03/31 05:32:26;;;;;;;20.48;7.97;;;;;;;;;;5030298;28;20559;-70
2023/03/31 05:34:55;;;;;;;11.52;6.22;;;;;;;;;;5013350;28;20470;-70
2023/03/31 05:37:23;;;;;;;14.07;6.45;;;;;;;;;;5030288;28;20037;-68
2023/03/31 05:39:49;;;;;;;13.15;5.85;;;;;;;;;;5032001;28;20048;-68
2023/03/31 05:42:15;;;;;;;15.13;6.60;;;;;;;;;;5030774;28;20120;-69
2023/03/31 05:44:41;;;;;;;13.80;7.47;;;;;;;;;;5031889;28;20104;-68
2023/03/31 05:47:06;;;;;;;17.52;7.10;;;;;;;;;;5027154;28;20030;-67
2023/03/31 05:49:32;;;;;;;9.98;6.03;;;;;;;;;;5029624;28;20526;-69
2023/03/31 05:51:58;;;;;;;10.90;6.15;;;;;;;;;;5029217;28;20045;-67
2023/03/31 05:54:24;;;;;;;11.10;5.82;;;;;;;;;;5029710;28;20028;-69
2023/03/31 05:56:49;;;;;;;14.85;6.72;;;;;;;;;;5013863;28;20029;-69
2023/03/31 05:59:15;;;;;;;10.75;6.10;;;;;;;;;;5031401;28;20017;-70
2023/03/31 06:01:41;;;;;;;14.27;6.10;;;;;;;;;;5031004;28;20415;-70
2023/03/31 06:04:06;;;;;;;12.35;5.93;;;;;;;;;;5031601;28;20379;-70
2023/03/31 06:06:33;;;;;;;15.93;6.18;;;;;;;;;;5031340;28;20159;-70
2023/03/31 06:08:59;;;;;;;12.65;6.63;;;;;;;;;;5029827;28;20029;-69
2023/03/31 06:11:25;;;;;;;12.65;6.20;;;;;;;;;;5029908;28;20033;-71
2023/03/31 06:13:51;;;;;;;10.98;6.47;;;;;;;;;;5026333;28;20515;-72
2023/03/31 06:16:17;;;;;;;16.27;5.93;;;;;;;;;;5026194;28;20030;-70
2023/03/31 06:18:43;;;;;;;15.25;5.68;;;;;;;;;;5030356;28;20021;-69
2023/03/31 06:21:17;;;;;;;8.20;4.93;;;;;;;;;;5030581;28;20067;-70
2023/03/31 06:23:44;;;;;;;14.80;6.10;;;;;;;;;;5030990;28;20391;-71
2023/03/31 06:26:13;;;;;;;8.80;5.35;;;;;;;;;;5027614;28;20065;-72
2023/03/31 06:28:39;;;;;;;10.05;4.78;;;;;;;;;;5030468;28;20072;-73
2023/03/31 06:31:08;;;;;;;12.75;5.20;;;;;;;;;;5030092;28;20059;-73
2023/03/31 06:33:34;;;;;;;11.40;5.15;;;;;;;;;;5029996;28;20037;-72
2023/03/31 06:36:02;;;;;;;11.75;4.80;;;;;;;;;;5030283;28;20391;-72
2023/03/31 06:38:30;;;;;;;11.55;4.80;;;;;;;;;;5028992;28;20461;-71
2023/03/31 06:40:55;;;;;;;9.25;5.35;;;;;;;;;;5029480;28;20387;-70
2023/03/31 06:43:21;;;;;;;12.38;4.78;;;;;;;;;;5028886;28;20041;-70
2023/03/31 06:45:47;;;;;;;10.07;4.90;;;;;;;;;;5020405;28;20022;-71
2023/03/31 06:48:13;;;;;;;10.40;4.38;;;;;;;;;;5030389;28;20547;-72
2023/03/31 06:50:40;;;;;;;7.07;4.07;;;;;;;;;;5029136;28;20180;-71
2023/03/31 06:53:07;;;;;;;7.57;4.55;;;;;;;;;;5029134;28;20041;-71
2023/03/31 06:55:34;;;;;;;11.75;4.57;;;;;;;;;;5029299;28;20026;-70
2023/03/31 06:58:00;;;;;;;9.85;4.18;;;;;;;;;;5028997;28;20427;-70
2023/03/31 07:00:26;;;;;;;6.80;3.65;;;;;;;;;;5029709;28;20091;-70
2023/03/31 07:02:52;;;;;;;10.55;4.55;;;;;;;;;;5031322;28;20065;-70
2023/03/31 07:05:25;;;;;;;13.63;4.63;;;;;;;;;;5029490;28;20057;-71
2023/03/31 07:07:55;;;;;;;11.32;4.13;;;;;;;;;;5029459;28;20035;-72
2023/03/31 07:10:22;;;;;;;11.68;4.25;;;;;;;;;;5026396;28;20037;-70
2023/03/31 07:12:48;;;;;;;10.38;4.78;;;;;;;;;;5029575;28;20499;-70
2023/03/31 07:15:15;;;;;;;9.82;3.92;;;;;;;;;;5029964;28;20025;-72
2023/03/31 07:17:41;;;;;;;14.68;4.30;;;;;;;;;;5028401;28;20390;-71
2023/03/31 07:20:11;;;;;;;6.80;3.20;;;;;;;;;;5029472;28;20132;-71
2023/03/31 07:22:40;;;;;;;12.52;4.03;;;;;;;;;;5030312;28;20037;-70
2023/03/31 07:25:07;;;;;;;9.27;3.83;;;;;;;;;;5033538;28;20352;-70
2023/03/31 07:27:32;;;;;;;10.98;3.35;;;;;;;;;;5033552;28;20044;-72
2023/03/31 07:29:58;;;;;;;9.13;3.10;;;;;;;;;;5033270;28;20025;-69
2023/03/31 07:32:24;;;;;;;9.13;3.40;;;;;;;;;;5031879;28;20112;-69
2023/03/31 07:34:50;;;;;;;22.02;4.72;;;;;;;;;;5027477;28;21236;-71
2023/03/31 07:37:16;;;;;;;15.45;5.03;;;;;;;;;;5026091;28;20036;-72
2023/03/31 07:39:43;;;;;;;17.35;4.97;;;;;;;;;;5028276;28;20025;-70
2023/03/31 07:42:08;;;;;;;12.23;3.65;;;;;;;;;;5030025;28;20037;-73
2023/03/31 07:44:36;;;;;;;22.15;5.55;;;;;;;;;;5028325;28;20025;-71
2023/03/31 07:47:04;;;;;;;13.38;3.80;;;;;;;;;;5033132;28;20025;-72
2023/03/31 07:49:34;;;;;;;10.15;4.63;;;;;;;;;;5031819;28;20025;-72
2023/03/31 07:52:01;;;;;;;11.70;3.72;;;;;;;;;;5033181;28;20041;-71
2023/03/31 07:54:27;;;;;;;8.82;3.50;;;;;;;;;;5033751;28;20021;-72
2023/03/31 07:56:53;;;;;;;9.75;3.63;;;;;;;;;;5033187;28;20503;-74
2023/03/31 07:59:19;;;;;;;5.65;2.78;;;;;;;;;;5030535;28;20032;-71
2023/03/31 08:01:45;;;;;;;10.85;3.05;;;;;;;;;;5032856;28;20045;-72
2023/03/31 08:04:11;;;;;;;9.75;3.75;;;;;;;;;;5033227;28;20020;-72
2023/03/31 08:06:38;;;;;;;15.23;4.30;;;;;;;;;;5032709;28;20118;-72
2023/03/31 08:09:06;;;;;;;21.00;4.60;;;;;;;;;;5032878;28;20051;-71
2023/03/31 08:11:33;;;;;;;9.70;3.03;;;;;;;;;;5026235;28;20041;-71
2023/03/31 08:13:58;;;;;;;15.27;3.28;;;;;;;;;;5031353;28;20031;-71
2023/03/31 08:16:24;;;;;;;19.90;5.07;;;;;;;;;;5032595;28;20026;-72
2023/03/31 08:18:50;;;;;;;19.17;4.43;;;;;;;;;;5030958;28;20026;-72
2023/03/31 08:21:16;;;;;;;7.60;2.83;;;;;;;;;;5032676;28;20033;-72
2023/03/31 08:23:42;;;;;;;5.55;2.75;;;;;;;;;;5032670;28;20502;-72
2023/03/31 08:26:17;;;;;;;7.32;2.92;;;;;;;;;;5029465;28;20088;-74
2023/03/31 08:28:44;;;;;;;5.57;2.80;;;;;;;;;;5031113;28;20057;-71
2023/03/31 08:31:11;;;;;;;12.75;2.78;;;;;;;;;;5032320;28;20044;-72
2023/03/31 08:33:37;;;;;;;10.05;3.25;;;;;;;;;;5031933;28;20041;-72
2023/03/31 08:36:07;;;;;;;10.25;3.00;;;;;;;;;;5031406;28;20020;-71
2023/03/31 08:38:38;;;;;;;8.40;2.95;;;;;;;;;;5032114;28;20037;-70
2023/03/31 08:41:06;;;;;;;6.82;2.72;;;;;;;;;;5032393;28;20153;-71
2023/03/31 08:43:45;;;;;;;9.02;3.15;;;;;;;;;;5032026;28;20108;-71
2023/03/31 08:46:14;;;;;;;10.13;2.47;;;;;;;;;;5031937;28;20061;-72
2023/03/31 08:48:47;;;;;;;14.85;3.20;;;;;;;;;;5031544;28;20487;-72
2023/03/31 08:51:19;;;;;;;9.05;2.80;;;;;;;;;;5032011;28;20073;-71
2023/03/31 08:53:56;;;;;;;10.15;3.13;;;;;;;;;;5031803;28;20063;-72
2023/03/31 08:56:24;;;;;;;10.05;3.00;;;;;;;;;;5031890;28;20032;-73
2023/03/31 08:58:51;;;;;;;9.27;2.90;;;;;;;;;;5030118;28;20087;-72
2023/03/31 09:01:45;;;;;;;9.93;3.25;;;;;;;;;;5031097;28;20087;-72
2023/03/31 09:04:40;;;;;;;11.30;3.15;;;;;;;;;;5023761;28;20037;-71
2023/03/31 09:07:23;;;;;;;16.27;3.83;;;;;;;;;;5031209;28;20110;-70
2023/03/31 09:09:58;;;;;;;11.98;3.67;;;;;;;;;;5031173;28;20042;-72
2023/03/31 09:12:45;;;;;;;13.32;3.50;;;;;;;;;;5029533;28;20530;-72
2023/03/31 09:15:29;;;;;;;11.68;3.28;;;;;;;;;;5030652;28;20484;-72
2023/03/31 09:18:02;;;;;;;11.32;2.88;;;;;;;;;;5031047;28;20480;-72
2023/03/31 09:20:35;;;;;;;7.00;2.78;;;;;;;;;;5030692;28;20055;-72
2023/03/31 09:23:14;;;;;;;5.40;2.40;;;;;;;;;;5031330;28;20045;-71
2023/03/31 09:25:43;;;;;;;9.30;2.90;;;;;;;;;;5029209;28;20116;-71
2023/03/31 09:28:28;;;;;;;8.50;2.80;;;;;;;;;;5024344;28;20025;-71
2023/03/31 09:30:55;;;;;;;7.57;2.78;;;;;;;;;;5025238;28;20033;-71
2023/03/31 09:33:30;;;;;;;5.85;2.40;;;;;;;;;;5030543;28;20510;-72
2023/03/31 09:36:00;;;;;;;11.45;3.20;;;;;;;;;;5029570;28;20039;-72
2023/03/31 09:38:28;;;;;;;6.80;2.38;;;;;;;;;;5030373;28;20533;-70
2023/03/31 09:41:00;;;;;;;6.53;2.60;;;;;;;;;;5029392;28;20521;-73
2023/03/31 09:43:28;;;;;;;10.90;2.35;;;;;;;;;;5031145;28;20463;-71
2023/03/31 09:45:56;;;;;;;16.67;2.90;;;;;;;;;;5023155;28;20021;-71
2023/03/31 09:48:25;;;;;;;9.32;1.75;;;;;;;;;;5031116;28;20032;-71
2023/03/31 09:50:56;;;;;;;9.23;2.70;;;;;;;;;;5030811;28;20052;-71
2023/03/31 09:53:39;;;;;;;8.82;2.40;;;;;;;;;;5030606;28;20384;-71
2023/03/31 09:56:07;;;;;;;8.53;2.27;;;;;;;;;;5030883;28;20081;-72
2023/03/31 09:58:45;;;;;;;8.77;2.13;;;;;;;;;;5030856;28;20267;-71
2023/03/31 10:01:14;;;;;;;6.13;1.70;;;;;;;;;;5030606;28;20066;-70
2023/03/31 10:03:49;;;;;;;6.15;1.73;;;;;;;;;;5031245;28;20031;-70
2023/03/31 10:06:16;;;;;;;3.50;1.35;;;;;;;;;;5030870;28;20033;-71
2023/03/31 10:08:48;;;;;;;7.47;1.83;;;;;;;;;;5030671;28;20029;-71
2023/03/31 10:11:15;;;;;;;4.85;1.65;;;;;;;;;;5030417;28;20035;-71
2023/03/31 10:13:52;;;;;;;5.00;1.70;;;;;;;;;;5030386;28;20025;-71
2023/03/31 10:16:28;;;;;;;9.65;1.95;;;;;;;;;;5025564;28;20026;-71
2023/03/31 10:18:56;;;;;;;9.73;2.67;;;;;;;;;;5028635;28;20087;-72
2023/03/31 10:21:27;;;;;;;7.40;2.40;;;;;;;;;;5030076;28;20434;-72
2023/03/31 10:23:54;;;;;;;8.15;2.40;;;;;;;;;;5030572;28;20030;-72
2023/03/31 10:26:22;;;;;;;5.38;1.90;;;;;;;;;;5030203;28;20037;-71
2023/03/31 10:28:51;;;;;;;6.18;2.03;;;;;;;;;;5030313;28;20187;-70
2023/03/31 10:31:18;;;;;;;4.85;1.90;;;;;;;;;;5028845;28;20088;-71
2023/03/31 10:33:47;;;;;;;9.20;2.22;;;;;;;;;;5026440;28;20041;-72
2023/03/31 10:36:13;;;;;;;6.78;2.10;;;;;;;;;;5030699;28;20021;-71
2023/03/31 10:38:44;;;;;;;10.15;1.90;;;;;;;;;;5030505;28;20381;-72
2023/03/31 10:41:16;;;;;;;8.18;2.35;;;;;;;;;;5030381;28;20029;-71
2023/03/31 10:43:47;;;;;;;3.65;1.90;;;;;;;;;;5030891;28;20042;-72
2023/03/31 10:46:13;;;;;;;4.97;1.35;;;;;;;;;;5030142;28;20530;-72
2023/03/31 10:48:41;;;;;;;4.68;1.70;;;;;;;;;;5029589;28;20029;-70
2023/03/31 10:51:17;;;;;;;7.07;1.70;;;;;;;;;;5029232;28;20111;-71
2023/03/31 10:53:46;;;;;;;5.63;1.73;;;;;;;;;;5030100;28;20068;-71
2023/03/31 10:56:25;;;;;;;7.85;1.90;;;;;;;;;;5030508;28;20039;-71
2023/03/31 10:59:18;;;;;;;12.48;2.38;;;;;;;;;;5031669;28;20045;-71
2023/03/31 11:02:21;;;;;;;7.40;1.92;;;;;;;;;;5037044;28;20038;-70
2023/03/31 11:05:02;;;;;;;6.60;1.80;;;;;;;;;;5028719;28;20041;-71
2023/03/31 11:08:05;;;;;;;6.93;2.28;;;;;;;;;;5031149;28;20029;-71
2023/03/31 11:10:39;;;;;;;7.88;2.45;;;;;;;;;;5029133;28;20478;-70
2023/03/31 11:13:28;;;;;;;6.82;2.15;;;;;;;;;;5029272;28;20044;-71
2023/03/31 11:15:58;;;;;;;11.45;3.03;;;;;;;;;;5026944;28;20060;-71
2023/03/31 11:18:45;;;;;;;4.63;1.50;;;;;;;;;;5029714;28;20049;-71
2023/03/31 11:21:30;;;;;;;7.50;2.63;;;;;;;;;;5028991;28;20397;-71
2023/03/31 11:24:08;;;;;;;9.13;3.72;;;;;;;;;;5028628;28;20350;-70
2023/03/31 11:27:01;;;;;;;5.38;2.08;;;;;;;;;;5029691;28;20033;-70
2023/03/31 11:29:52;;;;;;;11.23;3.42;;;;;;;;;;5026062;28;20929;-71
2023/03/31 11:32:40;;;;;;;5.63;2.30;;;;;;;;;;5027874;28;20404;-71
2023/03/31 11:35:32;;;;;;;8.27;2.13;;;;;;;;;;5030925;28;20479;-72
2023/03/31 11:38:33;;;;;;;7.93;2.50;;;;;;;;;;5026908;28;20037;-71
2023/03/31 11:41:11;;;;;;;10.05;2.53;;;;;;;;;;5024151;28;20049;-72
2023/03/31 11:43:53;;;;;;;4.03;1.38;;;;;;;;;;5027792;28;20029;-71
2023/03/31 11:46:45;;;;;;;5.95;1.90;;;;;;;;;;5026545;28;20491;-71
2023/03/31 11:49:37;;;;;;;6.70;1.67;;;;;;;;;;5025147;28;20095;-72
2023/03/31 11:52:28;;;;;;;8.45;2.60;;;;;;;;;;5027937;28;20511;-72
2023/03/31 11:55:14;;;;;;;11.27;1.75;;;;;;;;;;5027076;28;20034;-73
2023/03/31 11:58:10;;;;;;;7.80;2.05;;;;;;;;;;5023760;28;20057;-71
2023/03/31 12:00:45;;;;;;;8.02;2.80;;;;;;;;;;5009438;28;20084;-72
2023/03/31 12:03:22;;;;;;;7.22;1.95;;;;;;;;;;5027042;28;20037;-71
2023/03/31 12:06:01;;;;;;;8.68;2.03;;;;;;;;;;5026732;28;20041;-71
2023/03/31 12:08:45;;;;;;;7.45;1.98;;;;;;;;;;5010046;28;20037;-71
2023/03/31 12:11:23;;;;;;;6.85;1.98;;;;;;;;;;5024889;28;20394;-69
2023/03/31 12:14:00;;;;;;;8.57;2.30;;;;;;;;;;5025158;28;20053;-70
2023/03/31 12:16:40;;;;;;;5.35;2.20;;;;;;;;;;5028235;28;20039;-71
2023/03/31 12:19:27;;;;;;;13.48;2.40;;;;;;;;;;5027403;28;20514;-71
2023/03/31 12:22:09;;;;;;;6.65;1.80;;;;;;;;;;5025407;28;20120;-70
2023/03/31 12:24:35;;;;;;;7.60;2.10;;;;;;;;;;5023792;28;20103;-70
2023/03/31 12:27:21;;;;;;;5.32;2.42;;;;;;;;;;5028266;28;20030;-70
2023/03/31 12:30:13;;;;;;;8.02;2.42;;;;;;;;;;5026710;28;20060;-70
2023/03/31 12:32:44;;;;;;;12.65;2.78;;;;;;;;;;5022185;28;20069;-70
2023/03/31 12:35:13;;;;;;;9.80;2.53;;;;;;;;;;5025470;28;20480;-71
2023/03/31 12:38:04;;;;;;;11.20;2.22;;;;;;;;;;5024906;28;20779;-69
2023/03/31 12:40:38;;;;;;;8.40;2.22;;;;;;;;;;5026249;28;20064;-70
2023/03/31 12:43:07;;;;;;;13.20;2.80;;;;;;;;;;5026278;28;20025;-71
2023/03/31 12:45:57;;;;;;;12.20;2.58;;;;;;;;;;5029053;28;20029;-70
2023/03/31 12:48:48;;;;;;;8.90;2.05;;;;;;;;;;5023544;28;20456;-71
2023/03/31 12:51:55;;;;;;;11.45;2.08;;;;;;;;;;5025619;28;20535;-70
2023/03/31 12:54:35;;;;;;;9.63;2.05;;;;;;;;;;5027826;28;20041;-72
2023/03/31 12:57:00;;;;;;;8.60;2.10;;;;;;;;;;5027220;28;20065;-69
2023/03/31 12:59:37;;;;;;;15.00;3.90;;;;;;;;;;5026129;28;20072;-69
2023/03/31 13:02:15;;;;;;;17.15;2.60;;;;;;;;;;5027520;28;20067;-70
2023/03/31 13:04:42;;;;;;;8.82;2.45;;;;;;;;;;5036584;28;26155;-70
2023/03/31 13:07:26;;;;;;;12.02;2.67;;;;;;;;;;5047716;28;20037;-70
2023/03/31 13:10:17;;;;;;;8.25;2.30;;;;;;;;;;5030129;28;20484;-70
2023/03/31 13:13:05;;;;;;;14.68;2.63;;;;;;;;;;5031142;28;20043;-70
2023/03/31 13:15:31;;;;;;;10.63;2.17;;;;;;;;;;5031556;28;20087;-70
2023/03/31 13:18:00;;;;;;;5.40;1.92;;;;;;;;;;5046438;28;20055;-71
2023/03/31 13:20:35;;;;;;;6.22;2.28;;;;;;;;;;5050498;28;20476;-71
2023/03/31 13:23:02;;;;;;;8.63;2.10;;;;;;;;;;5048646;28;20032;-71
2023/03/31 13:25:28;;;;;;;9.45;2.15;;;;;;;;;;5043200;28;20136;-69
2023/03/31 13:27:55;;;;;;;6.68;2.22;;;;;;;;;;5048469;28;20545;-70
2023/03/31 13:30:36;;;;;;;5.55;1.70;;;;;;;;;;5051302;28;20094;-70
2023/03/31 13:33:15;;;;;;;4.75;1.88;;;;;;;;;;5051918;28;20032;-70
2023/03/31 13:35:45;;;;;;;7.22;2.25;;;;;;;;;;5051333;28;20082;-70
2023/03/31 13:38:36;;;;;;;9.15;2.75;;;;;;;;;;5048242;28;20398;-70
2023/03/31 13:41:07;;;;;;;10.63;2.85;;;;;;;;;;5050852;28;20028;-69
2023/03/31 13:43:42;;;;;;;7.72;2.35;;;;;;;;;;5050946;28;20045;-70
2023/03/31 13:46:28;;;;;;;8.52;2.25;;;;;;;;;;5051208;28;20032;-71
2023/03/31 13:49:18;;;;;;;8.95;2.53;;;;;;;;;;5049794;28;20043;-70
2023/03/31 13:51:50;;;;;;;6.35;1.88;;;;;;;;;;5048817;28;20029;-71
2023/03/31 13:54:50;;;;;;;6.53;2.20;;;;;;;;;;5051822;28;20094;-70
2023/03/31 13:57:46;;;;;;;11.18;2.70;;;;;;;;;;5050257;28;20033;-70
2023/03/31 14:00:16;;;;;;;9.88;2.00;;;;;;;;;;5044228;28;20441;-70
2023/03/31 14:03:05;;;;;;;9.23;2.10;;;;;;;;;;5051118;28;20037;-70
2023/03/31 14:05:54;;;;;;;7.10;2.00;;;;;;;;;;5051284;28;20082;-69
2023/03/31 14:08:38;;;;;;;11.23;2.97;;;;;;;;;;5045355;28;20037;-70
2023/03/31 14:11:16;;;;;;;9.45;2.25;;;;;;;;;;5051110;28;20063;-70
2023/03/31 14:13:42;;;;;;;7.10;2.65;;;;;;;;;;5050824;28;20036;-69
2023/03/31 14:16:08;;;;;;;8.07;2.47;;;;;;;;;;5051276;28;20120;-70
2023/03/31 14:18:40;;;;;;;10.30;1.95;;;;;;;;;;5050144;28;20131;-69
2023/03/31 14:21:19;;;;;;;5.60;1.90;;;;;;;;;;5042770;28;20483;-70
2023/03/31 14:24:10;;;;;;;9.20;2.30;;;;;;;;;;5050787;28;20050;-69
2023/03/31 14:27:19;;;;;;;7.18;2.22;;;;;;;;;;5049484;28;20529;-69
2023/03/31 14:30:16;;;;;;;10.05;2.40;;;;;;;;;;5050915;28;20041;-68
2023/03/31 14:33:03;;;;;;;8.52;2.42;;;;;;;;;;5040771;28;20040;-69
2023/03/31 14:35:53;;;;;;;6.10;2.22;;;;;;;;;;5055112;28;20028;-70
2023/03/31 14:38:21;;;;;;;7.68;2.00;;;;;;;;;;5054950;28;20486;-69
2023/03/31 14:40:56;;;;;;;15.73;2.90;;;;;;;;;;5054597;28;20029;-70
2023/03/31 14:43:25;;;;;;;7.30;2.20;;;;;;;;;;5055096;28;20395;-69
2023/03/31 14:45:57;;;;;;;3.92;2.00;;;;;;;;;;5054870;28;20497;-70
2023/03/31 14:48:23;;;;;;;9.82;2.80;;;;;;;;;;5055039;28;20036;-68
2023/03/31 14:50:55;;;;;;;6.72;2.40;;;;;;;;;;5055114;28;20025;-68
2023/03/31 14:53:23;;;;;;;5.82;2.17;;;;;;;;;;5054802;28;20025;-70
2023/03/31 14:55:50;;;;;;;6.55;1.80;;;;;;;;;;5054848;28;20045;-69
2023/03/31 14:58:38;;;;;;;8.20;2.30;;;;;;;;;;5054567;28;20040;-71
2023/03/31 15:01:07;;;;;;;7.78;2.35;;;;;;;;;;5054378;28;20490;-70
2023/03/31 15:03:40;;;;;;;4.45;1.75;;;;;;;;;;5054750;28;20025;-71
2023/03/31 15:06:07;;;;;;;5.68;1.50;;;;;;;;;;5054115;28;20032;-71
2023/03/31 15:08:36;;;;;;;7.03;1.90;;;;;;;;;;5054226;28;20090;-70
2023/03/31 15:11:07;;;;;;;10.23;1.95;;;;;;;;;;5054145;28;20471;-70